createdAt,value
2022-09-28T00:00:46.323Z,100.00
2022-09-28T00:03:13.106Z,100.00
2022-09-28T00:05:39.550Z,100.00
2022-09-28T00:08:05.985Z,100.00
2022-09-28T00:10:32.469Z,100.00
2022-09-28T00:13:00.543Z,100.00
2022-09-28T00:15:27.313Z,100.00
2022-09-28T00:17:53.699Z,100.00
2022-09-28T00:20:20.438Z,100.00
2022-09-28T00:22:46.875Z,100.00
2022-09-28T00:25:13.319Z,100.00
2022-09-28T00:27:40.164Z,100.00
2022-09-28T00:30:07.400Z,100.00
2022-09-28T00:32:33.869Z,100.00
2022-09-28T00:35:00.596Z,100.00
2022-09-28T00:37:27.076Z,100.00
2022-09-28T00:39:53.546Z,100.00
2022-09-28T00:42:23.252Z,100.00
2022-09-28T00:44:50.976Z,100.00
2022-09-28T00:47:26.437Z,100.00
2022-09-28T00:50:01.300Z,100.00
2022-09-28T00:52:51.008Z,100.00
2022-09-28T00:55:24.999Z,100.00
2022-09-28T00:57:56.030Z,100.00
2022-09-28T01:00:22.795Z,100.00
2022-09-28T01:02:49.430Z,100.00
2022-09-28T01:05:17.680Z,100.00
2022-09-28T01:07:46.778Z,100.00
2022-09-28T01:10:14.622Z,100.00
2022-09-28T01:12:41.054Z,100.00
2022-09-28T01:15:08.272Z,100.00
2022-09-28T01:18:16.867Z,100.00
2022-09-28T01:20:53.976Z,100.00
2022-09-28T01:23:29.398Z,100.00
2022-09-28T01:26:23.910Z,100.00
2022-09-28T01:29:08.370Z,100.00
2022-09-28T01:31:37.069Z,100.00
2022-09-28T01:34:16.443Z,100.00
2022-09-28T01:36:50.632Z,100.00
2022-09-28T01:39:34.706Z,100.00
2022-09-28T01:42:06.895Z,100.00
2022-09-28T01:44:39.739Z,100.00
2022-09-28T01:47:12.298Z,100.00
2022-09-28T01:49:48.806Z,100.00
2022-09-28T01:52:31.629Z,100.00
2022-09-28T01:55:03.411Z,100.00
2022-09-28T01:57:39.758Z,100.00
2022-09-28T02:00:10.599Z,100.00
2022-09-28T02:02:54.558Z,100.00
2022-09-28T02:05:33.525Z,100.00
2022-09-28T02:08:08.851Z,100.00
2022-09-28T02:11:03.200Z,100.00
2022-09-28T02:13:35.326Z,100.00
2022-09-28T02:16:20.151Z,100.00
2022-09-28T02:18:49.492Z,100.00
2022-09-28T02:21:22.946Z,100.00
2022-09-28T02:23:56.327Z,100.00
2022-09-28T02:26:27.145Z,100.00
2022-09-28T02:28:53.654Z,100.00
2022-09-28T02:31:20.232Z,100.00
2022-09-28T02:33:50.825Z,100.00
2022-09-28T02:36:17.417Z,100.00
2022-09-28T02:38:43.864Z,100.00
2022-09-28T02:41:31.594Z,100.00
2022-09-28T02:44:14.805Z,100.00
2022-09-28T02:46:57.889Z,100.00
2022-09-28T02:49:42.462Z,100.00
2022-09-28T02:52:27.659Z,100.00
2022-09-28T02:55:01.621Z,100.00
2022-09-28T02:57:53.142Z,100.00
2022-09-28T03:00:23.969Z,100.00
2022-09-28T03:03:09.352Z,100.00
2022-09-28T03:05:52.630Z,100.00
2022-09-28T03:08:31.139Z,100.00
2022-09-28T03:11:07.129Z,100.00
2022-09-28T03:13:35.095Z,100.00
2022-09-28T03:16:14.015Z,100.00
2022-09-28T03:18:42.179Z,100.00
2022-09-28T03:21:11.296Z,100.00
2022-09-28T03:23:38.344Z,100.00
2022-09-28T03:26:05.083Z,100.00
2022-09-28T03:28:31.889Z,100.00
2022-09-28T03:30:58.317Z,100.00
2022-09-28T03:33:24.904Z,100.00
2022-09-28T03:35:51.736Z,100.00
2022-09-28T03:38:18.922Z,100.00
2022-09-28T03:40:56.712Z,100.00
2022-09-28T03:43:24.548Z,100.00
2022-09-28T03:46:02.412Z,100.00
2022-09-28T03:48:34.136Z,100.00
2022-09-28T03:51:07.070Z,100.00
2022-09-28T03:53:33.768Z,100.00
2022-09-28T03:56:06.324Z,100.00
2022-09-28T03:58:33.038Z,100.00
2022-09-28T04:01:16.445Z,100.00
2022-09-28T04:03:45.256Z,100.00
2022-09-28T04:06:12.532Z,100.00
2022-09-28T04:08:39.108Z,100.00
2022-09-28T04:11:06.350Z,100.00
2022-09-28T04:13:33.569Z,100.00
2022-09-28T04:16:01.409Z,100.00
2022-09-28T04:18:32.631Z,100.00
2022-09-28T04:21:22.082Z,100.00
2022-09-28T04:23:54.211Z,100.00
2022-09-28T04:26:24.147Z,100.00
2022-09-28T04:29:09.681Z,100.00
2022-09-28T04:31:49.587Z,100.00
2022-09-28T04:34:19.695Z,100.00
2022-09-28T04:36:48.198Z,100.00
2022-09-28T04:39:17.608Z,100.00
2022-09-28T04:41:48.867Z,100.00
2022-09-28T04:44:15.952Z,100.00
2022-09-28T04:46:46.032Z,100.00
2022-09-28T04:49:44.665Z,100.00
2022-09-28T04:52:18.470Z,100.00
2022-09-28T04:54:48.145Z,100.00
2022-09-28T04:57:14.619Z,100.00
2022-09-28T04:59:41.272Z,100.00
2022-09-28T05:02:08.025Z,100.00
2022-09-28T05:04:55.192Z,100.00
2022-09-28T05:07:45.946Z,100.00
2022-09-28T05:10:12.805Z,100.00
2022-09-28T05:12:39.994Z,100.00
2022-09-28T05:15:06.868Z,100.00
2022-09-28T05:17:33.369Z,100.00
2022-09-28T05:20:07.448Z,100.00
2022-09-28T05:22:34.156Z,100.00
2022-09-28T05:25:00.693Z,100.00
2022-09-28T05:27:31.289Z,100.00
2022-09-28T05:30:06.724Z,100.00
2022-09-28T05:33:08.967Z,100.00
2022-09-28T05:35:42.885Z,100.00
2022-09-28T05:38:09.328Z,100.00
2022-09-28T05:40:35.833Z,100.00
2022-09-28T05:43:02.385Z,100.00
2022-09-28T05:45:29.972Z,100.00
2022-09-28T05:47:56.878Z,100.00
2022-09-28T05:50:24.024Z,100.00
2022-09-28T05:53:06.019Z,100.00
2022-09-28T05:55:33.050Z,100.00
2022-09-28T05:58:01.599Z,100.00
2022-09-28T06:00:30.186Z,100.00
2022-09-28T06:02:57.707Z,100.00
2022-09-28T06:05:25.002Z,100.00
2022-09-28T06:07:51.620Z,100.00
2022-09-28T06:10:18.554Z,100.00
2022-09-28T06:12:47.720Z,100.00
2022-09-28T06:15:15.863Z,100.00
2022-09-28T06:17:43.787Z,100.00
2022-09-28T06:20:45.738Z,100.00
2022-09-28T06:23:16.751Z,100.00
2022-09-28T06:25:43.556Z,100.00
2022-09-28T06:28:11.816Z,100.00
2022-09-28T06:30:39.841Z,100.00
2022-09-28T06:33:12.748Z,100.00
2022-09-28T06:35:40.715Z,100.00
2022-09-28T06:38:07.803Z,100.00
2022-09-28T06:40:34.770Z,100.00
2022-09-28T06:43:02.781Z,100.00
2022-09-28T06:45:53.431Z,100.00
2022-09-28T06:48:49.885Z,100.00
2022-09-28T06:51:20.244Z,100.00
2022-09-28T06:53:57.451Z,100.00
2022-09-28T06:56:42.233Z,100.00
2022-09-28T06:59:08.765Z,100.00
2022-09-28T07:01:37.084Z,100.00
2022-09-28T07:04:08.315Z,100.00
2022-09-28T07:06:54.172Z,100.00
2022-09-28T07:09:43.568Z,100.00
2022-09-28T07:12:19.750Z,100.00
2022-09-28T07:15:01.184Z,100.00
2022-09-28T07:17:28.389Z,100.00
2022-09-28T07:20:04.862Z,100.00
2022-09-28T07:22:43.281Z,100.00
2022-09-28T07:25:15.111Z,100.00
2022-09-28T07:27:44.504Z,100.00
2022-09-28T07:30:34.098Z,100.00
2022-09-28T07:33:10.601Z,100.00
2022-09-28T07:35:57.262Z,100.00
2022-09-28T07:38:27.579Z,100.00
2022-09-28T07:41:11.720Z,100.00
2022-09-28T07:43:43.477Z,100.00
2022-09-28T07:46:12.182Z,100.00
2022-09-28T07:48:43.692Z,100.00
2022-09-28T07:51:28.817Z,99.60
2022-09-28T07:54:17.856Z,99.47
2022-09-28T07:57:06.848Z,99.14
2022-09-28T07:59:53.508Z,99.01
2022-09-28T08:02:40.639Z,99.03
2022-09-28T08:05:09.876Z,99.08
2022-09-28T08:07:38.214Z,98.09
2022-09-28T08:10:07.951Z,97.87
2022-09-28T08:13:01.975Z,97.57
2022-09-28T08:15:51.273Z,98.00
2022-09-28T08:18:31.985Z,97.94
2022-09-28T08:21:16.803Z,96.88
2022-09-28T08:23:43.607Z,96.07
2022-09-28T08:26:15.214Z,96.47
2022-09-28T08:28:43.408Z,97.02
2022-09-28T08:31:31.159Z,95.55
2022-09-28T08:34:09.900Z,95.61
2022-09-28T08:36:57.950Z,95.75
2022-09-28T08:39:47.947Z,94.67
2022-09-28T08:42:35.727Z,93.88
2022-09-28T08:45:29.155Z,91.60
2022-09-28T08:48:51.743Z,90.84
2022-09-28T08:51:50.571Z,90.87
2022-09-28T08:54:31.489Z,90.89
2022-09-28T08:57:12.490Z,88.16
2022-09-28T08:59:59.668Z,87.37
2022-09-28T09:02:39.468Z,86.39
2022-09-28T09:05:19.803Z,84.99
2022-09-28T09:08:05.303Z,84.88
2022-09-28T09:10:50.948Z,87.18
2022-09-28T09:13:53.983Z,85.92
2022-09-28T09:16:51.124Z,83.25
2022-09-28T09:19:58.645Z,81.07
2022-09-28T09:22:40.277Z,80.24
2022-09-28T09:25:19.404Z,81.17
2022-09-28T09:27:59.098Z,81.42
2022-09-28T09:30:31.843Z,82.95
2022-09-28T09:33:24.092Z,82.89
2022-09-28T09:36:35.647Z,81.41
2022-09-28T09:40:16.247Z,80.29
2022-09-28T09:43:31.729Z,79.60
2022-09-28T09:46:32.586Z,79.75
2022-09-28T09:49:55.520Z,79.18
2022-09-28T09:52:27.678Z,76.14
2022-09-28T09:55:03.152Z,75.81
2022-09-28T09:57:50.917Z,76.19
2022-09-28T10:00:40.937Z,77.32
2022-09-28T10:03:25.325Z,75.75
2022-09-28T10:06:00.336Z,75.93
2022-09-28T10:08:28.229Z,75.49
2022-09-28T10:11:16.737Z,75.68
2022-09-28T10:13:49.143Z,73.79
2022-09-28T10:16:56.745Z,73.09
2022-09-28T10:19:43.978Z,72.66
2022-09-28T10:22:32.002Z,70.77
2022-09-28T10:25:05.593Z,72.42
2022-09-28T10:27:35.212Z,74.41
2022-09-28T10:30:08.402Z,73.61
2022-09-28T10:32:40.720Z,71.22
2022-09-28T10:35:16.878Z,72.21
2022-09-28T10:37:48.213Z,71.86
2022-09-28T10:40:39.582Z,70.40
2022-09-28T10:43:16.803Z,74.19
2022-09-28T10:45:45.684Z,71.56
2022-09-28T10:48:19.687Z,71.07
2022-09-28T10:51:18.830Z,70.17
2022-09-28T10:54:01.242Z,72.72
2022-09-28T10:56:55.480Z,69.84
2022-09-28T10:59:41.529Z,70.92
2022-09-28T11:02:27.264Z,70.12
2022-09-28T11:05:01.917Z,69.47
2022-09-28T11:07:45.149Z,70.38
2022-09-28T11:10:26.229Z,72.22
2022-09-28T11:12:57.563Z,68.92
2022-09-28T11:15:29.833Z,67.85
2022-09-28T11:18:25.175Z,68.80
2022-09-28T11:20:51.865Z,69.68
2022-09-28T11:23:26.735Z,69.98
2022-09-28T11:26:04.564Z,69.92
2022-09-28T11:28:37.429Z,69.99
2022-09-28T11:31:11.290Z,70.23
2022-09-28T11:34:04.287Z,70.20
2022-09-28T11:37:04.652Z,67.71
2022-09-28T11:40:04.365Z,67.64
2022-09-28T11:42:58.590Z,66.62
2022-09-28T11:45:51.804Z,66.01
2022-09-28T11:48:25.985Z,66.17
2022-09-28T11:50:59.798Z,66.99
2022-09-28T11:53:48.977Z,66.36
2022-09-28T11:56:34.740Z,67.62
2022-09-28T11:59:10.943Z,66.37
2022-09-28T12:01:51.374Z,67.47
2022-09-28T12:04:45.304Z,67.92
2022-09-28T12:07:23.232Z,69.08
2022-09-28T12:10:03.306Z,68.58
2022-09-28T12:12:48.095Z,70.38
2022-09-28T12:16:23.074Z,69.57
2022-09-28T12:18:45.764Z,71.64
2022-09-28T12:21:24.237Z,68.95
2022-09-28T12:23:54.463Z,67.15
2022-09-28T12:26:35.839Z,67.34
2022-09-28T12:29:11.764Z,66.41
2022-09-28T12:31:52.353Z,67.25
2022-09-28T12:34:18.861Z,65.43
2022-09-28T12:37:18.249Z,68.72
2022-09-28T12:40:03.493Z,71.83
2022-09-28T12:42:44.019Z,73.20
2022-09-28T12:45:27.620Z,72.19
2022-09-28T12:48:08.774Z,74.93
2022-09-28T12:50:59.630Z,78.69
2022-09-28T12:53:44.712Z,78.52
2022-09-28T12:56:27.964Z,80.10
2022-09-28T12:59:06.648Z,81.11
2022-09-28T13:01:55.040Z,81.89
2022-09-28T13:04:44.254Z,81.75
2022-09-28T13:07:55.262Z,83.29
2022-09-28T13:11:02.162Z,84.64
2022-09-28T13:13:59.524Z,85.99
2022-09-28T13:16:36.792Z,86.65
2022-09-28T13:19:11.399Z,87.31
2022-09-28T13:21:48.620Z,87.58
2022-09-28T13:24:32.587Z,88.36
2022-09-28T13:27:05.518Z,89.07
2022-09-28T13:29:34.831Z,88.00
2022-09-28T13:32:03.159Z,88.31
2022-09-28T13:34:33.837Z,88.53
2022-09-28T13:37:19.809Z,88.43
2022-09-28T13:39:46.157Z,88.32
2022-09-28T13:42:42.900Z,88.64
2022-09-28T13:45:18.453Z,88.05
2022-09-28T13:48:01.759Z,88.15
2022-09-28T13:51:01.694Z,87.55
2022-09-28T13:53:43.297Z,87.03
2022-09-28T13:56:37.905Z,88.24
2022-09-28T13:59:26.965Z,86.52
2022-09-28T14:02:27.727Z,87.31
2022-09-28T14:05:04.988Z,86.07
2022-09-28T14:07:34.488Z,86.67
2022-09-28T14:10:27.018Z,87.26
2022-09-28T14:12:54.893Z,87.80
2022-09-28T14:15:43.903Z,87.08
2022-09-28T14:18:20.420Z,86.70
2022-09-28T14:21:02.007Z,87.33
2022-09-28T14:23:37.432Z,85.79
2022-09-28T14:26:36.059Z,85.59
2022-09-28T14:29:27.725Z,84.78
2022-09-28T14:32:09.327Z,85.79
2022-09-28T14:34:43.697Z,84.66
2022-09-28T14:37:48.653Z,84.99
2022-09-28T14:40:39.357Z,85.55
2022-09-28T14:43:35.070Z,84.74
2022-09-28T14:46:07.704Z,84.06
2022-09-28T14:48:50.870Z,84.07
2022-09-28T14:51:26.614Z,84.79
2022-09-28T14:53:54.688Z,84.57
2022-09-28T14:56:22.294Z,83.57
2022-09-28T14:58:54.777Z,84.39
2022-09-28T15:01:24.601Z,84.70
2022-09-28T15:04:04.452Z,84.80
2022-09-28T15:06:51.457Z,84.91
2022-09-28T15:09:28.775Z,86.10
2022-09-28T15:12:03.558Z,88.56
2022-09-28T15:14:33.289Z,88.34
2022-09-28T15:17:02.824Z,89.13
2022-09-28T15:19:57.013Z,88.09
2022-09-28T15:22:23.596Z,88.88
2022-09-28T15:25:02.176Z,88.87
2022-09-28T15:27:36.982Z,88.68
2022-09-28T15:30:37.554Z,88.57
2022-09-28T15:33:23.569Z,90.20
2022-09-28T15:35:59.256Z,88.64
2022-09-28T15:38:25.946Z,88.23
2022-09-28T15:40:52.662Z,88.49
2022-09-28T15:43:37.895Z,88.78
2022-09-28T15:46:18.320Z,89.03
2022-09-28T15:48:56.962Z,88.55
2022-09-28T15:51:24.713Z,88.15
2022-09-28T15:53:51.206Z,88.21
2022-09-28T15:56:17.600Z,88.86
2022-09-28T15:58:46.458Z,88.51
2022-09-28T16:01:31.308Z,86.73
2022-09-28T16:03:57.826Z,87.39
2022-09-28T16:06:24.481Z,86.59
2022-09-28T16:08:51.012Z,85.24
2022-09-28T16:11:27.683Z,86.11
2022-09-28T16:13:54.048Z,85.14
2022-09-28T16:16:26.524Z,84.98
2022-09-28T16:18:55.498Z,83.77
2022-09-28T16:21:37.919Z,85.33
2022-09-28T16:24:05.064Z,87.08
2022-09-28T16:26:37.296Z,84.35
2022-09-28T16:29:25.459Z,85.17
2022-09-28T16:31:53.075Z,84.77
2022-09-28T16:34:24.039Z,86.39
2022-09-28T16:36:50.621Z,85.65
2022-09-28T16:39:19.746Z,84.76
2022-09-28T16:41:53.780Z,84.87
2022-09-28T16:44:31.768Z,86.57
2022-09-28T16:47:00.168Z,86.08
2022-09-28T16:49:26.719Z,86.60
2022-09-28T16:51:53.556Z,86.92
2022-09-28T16:54:41.213Z,87.46
2022-09-28T16:57:10.896Z,87.95
2022-09-28T16:59:40.295Z,88.05
2022-09-28T17:05:12.795Z,89.08
2022-09-28T17:07:40.112Z,89.17
2022-09-28T17:10:16.520Z,89.71
2022-09-28T17:12:42.983Z,89.93
2022-09-28T17:15:09.480Z,90.01
2022-09-28T17:17:37.221Z,90.67
2022-09-28T17:20:20.245Z,90.57
2022-09-28T17:22:46.886Z,90.58
2022-09-28T17:25:14.129Z,90.36
2022-09-28T17:27:45.168Z,90.42
2022-09-28T17:30:13.371Z,90.76
2022-09-28T17:32:44.816Z,90.65
2022-09-28T17:35:23.998Z,90.77
2022-09-28T17:37:51.731Z,90.55
2022-09-28T17:40:21.460Z,90.70
2022-09-28T17:42:48.118Z,90.82
2022-09-28T17:45:16.076Z,90.27
2022-09-28T17:47:43.994Z,90.24
2022-09-28T17:50:22.964Z,90.51
2022-09-28T17:52:53.775Z,91.01
2022-09-28T17:55:31.797Z,90.75
2022-09-28T17:58:01.096Z,90.73
2022-09-28T18:00:28.525Z,91.00
2022-09-28T18:02:56.213Z,91.45
2022-09-28T18:05:24.477Z,91.06
2022-09-28T18:07:51.939Z,91.17
2022-09-28T18:10:22.713Z,91.68
2022-09-28T18:12:50.497Z,92.25
2022-09-28T18:15:18.925Z,92.31
2022-09-28T18:17:45.703Z,92.53
2022-09-28T18:20:13.048Z,92.63
2022-09-28T18:22:39.913Z,92.56
2022-09-28T18:25:07.059Z,92.22
2022-09-28T18:27:34.852Z,91.78
2022-09-28T18:30:02.188Z,91.95
2022-09-28T18:32:28.832Z,92.08
2022-09-28T18:34:55.355Z,91.83
2022-09-28T18:37:21.950Z,92.37
2022-09-28T18:39:48.531Z,92.20
2022-09-28T18:42:15.015Z,92.44
2022-09-28T18:44:41.568Z,92.58
2022-09-28T18:47:08.011Z,92.16
2022-09-28T18:49:34.501Z,92.80
2022-09-28T18:52:01.427Z,93.09
2022-09-28T18:54:27.960Z,93.35
2022-09-28T18:56:56.254Z,93.40
2022-09-28T18:59:23.403Z,93.37
2022-09-28T19:01:51.110Z,93.79
2022-09-28T19:04:19.889Z,93.56
2022-09-28T19:06:51.606Z,93.83
2022-09-28T19:09:20.262Z,93.82
2022-09-28T19:11:48.192Z,94.45
2022-09-28T19:14:15.525Z,94.36
2022-09-28T19:16:43.924Z,94.18
2022-09-28T19:19:13.653Z,94.57
2022-09-28T19:21:43.155Z,94.87
2022-09-28T19:24:13.636Z,94.83
2022-09-28T19:26:40.555Z,95.09
2022-09-28T19:29:07.545Z,95.02
2022-09-28T19:31:34.070Z,95.27
2022-09-28T19:34:00.547Z,95.10
2022-09-28T19:36:28.633Z,95.48
2022-09-28T19:39:02.800Z,95.54
2022-09-28T19:41:44.535Z,95.84
2022-09-28T19:44:26.905Z,95.53
2022-09-28T19:47:04.151Z,95.54
2022-09-28T19:49:33.174Z,95.84
2022-09-28T19:52:15.600Z,95.64
2022-09-28T19:54:44.437Z,96.07
2022-09-28T19:57:12.223Z,96.35
2022-09-28T19:59:39.016Z,96.62
2022-09-28T20:02:07.582Z,96.76
2022-09-28T20:04:34.176Z,96.51
2022-09-28T20:07:01.775Z,96.46
2022-09-28T20:09:28.526Z,96.51
2022-09-28T20:11:57.827Z,96.47
2022-09-28T20:14:26.455Z,96.52
2022-09-28T20:16:57.229Z,96.46
2022-09-28T20:19:23.779Z,96.66
2022-09-28T20:21:50.768Z,96.40
2022-09-28T20:24:17.572Z,96.43
2022-09-28T20:26:45.720Z,96.46
2022-09-28T20:29:12.693Z,96.43
2022-09-28T20:31:39.199Z,96.35
2022-09-28T20:34:06.804Z,96.50
2022-09-28T20:36:34.147Z,96.32
2022-09-28T20:39:01.793Z,96.36
2022-09-28T20:41:35.613Z,96.47
2022-09-28T20:44:05.885Z,96.39
2022-09-28T20:46:39.309Z,96.29
2022-09-28T20:49:06.991Z,96.16
2022-09-28T20:51:33.404Z,96.06
2022-09-28T20:53:59.952Z,95.23
2022-09-28T20:56:27.771Z,95.95
2022-09-28T20:58:54.652Z,96.15
2022-09-28T21:01:22.542Z,95.80
2022-09-28T21:03:52.096Z,95.29
2022-09-28T21:06:21.827Z,95.10
2022-09-28T21:08:49.527Z,94.84
2022-09-28T21:11:22.700Z,94.58
2022-09-28T21:13:53.109Z,94.41
2022-09-28T21:16:19.939Z,94.79
2022-09-28T21:18:47.330Z,94.65
2022-09-28T21:21:16.299Z,94.93
2022-09-28T21:23:44.789Z,95.01
2022-09-28T21:26:13.688Z,95.17
2022-09-28T21:28:40.374Z,94.70
2022-09-28T21:31:10.673Z,95.16
2022-09-28T21:33:38.017Z,95.24
2022-09-28T21:36:06.610Z,95.43
2022-09-28T21:38:33.976Z,95.42
2022-09-28T21:41:00.829Z,95.37
2022-09-28T21:43:32.167Z,95.11
2022-09-28T21:45:58.710Z,95.75
2022-09-28T21:48:28.413Z,95.98
2022-09-28T21:51:07.145Z,95.85
2022-09-28T21:53:36.817Z,95.51
2022-09-28T21:56:05.490Z,95.51
2022-09-28T21:58:34.093Z,95.83
2022-09-28T22:01:03.281Z,95.75
2022-09-28T22:03:31.060Z,95.97
2022-09-28T22:05:57.652Z,95.70
2022-09-28T22:08:26.425Z,95.86
2022-09-28T22:11:08.240Z,96.21
2022-09-28T22:13:37.023Z,96.66
2022-09-28T22:16:03.614Z,96.29
2022-09-28T22:18:31.574Z,96.40
2022-09-28T22:21:02.731Z,96.43
2022-09-28T22:23:30.213Z,96.44
2022-09-28T22:26:01.562Z,96.38
2022-09-28T22:28:28.396Z,95.71
2022-09-28T22:30:55.754Z,95.98
2022-09-28T22:33:22.612Z,96.05
2022-09-28T22:35:51.123Z,96.13
2022-09-28T22:38:22.684Z,95.89
2022-09-28T22:40:54.601Z,95.95
2022-09-28T22:43:25.800Z,96.02
2022-09-28T22:46:13.159Z,95.43
2022-09-28T22:48:40.472Z,95.77
2022-09-28T22:51:07.143Z,95.65
2022-09-28T22:53:34.815Z,95.86
2022-09-28T22:56:03.958Z,96.00
2022-09-28T22:58:32.308Z,95.95
2022-09-28T23:01:07.869Z,95.93
2022-09-28T23:03:34.908Z,95.45
2022-09-28T23:06:01.573Z,95.57
2022-09-28T23:08:28.007Z,95.73
2022-09-28T23:10:54.592Z,95.97
2022-09-28T23:13:21.017Z,96.30
2022-09-28T23:16:05.416Z,95.99
2022-09-28T23:18:36.989Z,95.95
2022-09-28T23:21:06.552Z,95.89
2022-09-28T23:23:33.543Z,95.46
2022-09-28T23:26:01.050Z,95.58
2022-09-28T23:28:27.580Z,95.69
2022-09-28T23:30:54.260Z,95.55
2022-09-28T23:33:21.315Z,95.66
2022-09-28T23:35:47.901Z,95.38
2022-09-28T23:38:17.854Z,94.75
2022-09-28T23:40:47.756Z,95.62
2022-09-28T23:43:14.534Z,95.68
2022-09-28T23:45:43.948Z,95.71
2022-09-28T23:48:10.960Z,95.73
2022-09-28T23:50:37.494Z,95.50
2022-09-28T23:53:03.953Z,95.83
2022-09-28T23:55:30.410Z,96.15
2022-09-28T23:57:58.080Z,95.74
